createdAt,value
2023-03-23T15:58:14.145Z,1.05
2023-03-23T16:00:44.216Z,0.65
2023-03-23T16:03:18.859Z,0.32
2023-03-23T16:05:47.011Z,0.40
2023-03-23T16:08:16.654Z,0.50
2023-03-23T16:10:45.183Z,0.30
2023-03-23T16:13:14.816Z,0.40
2023-03-23T16:15:43.288Z,0.70
2023-03-23T16:18:19.050Z,1.00
2023-03-23T16:20:48.354Z,0.45
2023-03-23T16:23:16.780Z,0.40
2023-03-23T16:25:45.266Z,0.40
2023-03-23T16:28:16.209Z,0.40
2023-03-23T16:30:45.910Z,0.43
2023-03-23T16:33:15.139Z,0.40
2023-03-23T16:35:43.929Z,0.30
2023-03-23T16:38:14.811Z,0.32
2023-03-23T16:40:43.576Z,0.60
2023-03-23T16:43:12.144Z,0.50
2023-03-23T16:45:44.082Z,0.50
2023-03-23T16:48:13.956Z,0.35
2023-03-23T16:50:43.080Z,0.60
2023-03-23T16:53:11.956Z,0.50
2023-03-23T16:55:42.175Z,0.62
2023-03-23T16:58:16.958Z,0.60
2023-03-23T17:00:49.514Z,0.40
2023-03-23T17:03:18.936Z,0.50
2023-03-23T17:05:49.483Z,0.60
2023-03-23T17:08:17.875Z,0.40
2023-03-23T17:10:46.679Z,0.50
2023-03-23T17:13:15.365Z,0.32
2023-03-23T17:15:46.935Z,0.60
2023-03-23T17:18:17.161Z,0.40
2023-03-23T17:20:45.440Z,0.80
2023-03-23T17:23:13.515Z,0.60
2023-03-23T17:25:42.254Z,0.80
2023-03-23T17:28:10.552Z,0.73
2023-03-23T17:30:41.105Z,0.55
2023-03-23T17:33:09.808Z,0.50
2023-03-23T17:35:39.267Z,0.73
2023-03-23T17:38:07.450Z,0.70
2023-03-23T17:40:35.760Z,1.05
2023-03-23T17:43:04.023Z,1.80
2023-03-23T17:45:32.151Z,1.25
2023-03-23T17:48:00.757Z,1.60
2023-03-23T17:50:28.854Z,1.05
2023-03-23T17:52:58.175Z,0.75
2023-03-23T17:55:26.503Z,0.52
2023-03-23T17:57:54.520Z,0.90
2023-03-23T18:00:22.870Z,0.77
2023-03-23T18:02:51.245Z,0.57
2023-03-23T18:05:19.515Z,0.75
2023-03-23T18:07:48.030Z,0.90
2023-03-23T18:10:18.086Z,0.60
2023-03-23T18:12:46.274Z,0.35
2023-03-23T18:15:14.281Z,0.62
2023-03-23T18:17:45.327Z,0.62
2023-03-23T18:20:13.296Z,0.50
2023-03-23T18:22:41.384Z,0.60
2023-03-23T18:25:10.167Z,0.80
2023-03-23T18:27:39.861Z,0.82
2023-03-23T18:30:09.935Z,0.60
2023-03-23T18:32:39.352Z,0.90
2023-03-23T18:35:09.776Z,0.73
2023-03-23T18:37:40.158Z,0.50
2023-03-23T18:40:11.894Z,0.75
2023-03-23T18:42:44.638Z,0.80
2023-03-23T18:45:13.769Z,0.98
2023-03-23T18:47:42.194Z,1.00
2023-03-23T18:50:11.925Z,0.90
2023-03-23T18:52:40.400Z,0.70
2023-03-23T18:55:09.278Z,1.02
2023-03-23T18:57:41.234Z,1.08
2023-03-23T19:00:11.168Z,0.80
2023-03-23T19:02:40.166Z,0.57
2023-03-23T19:05:09.558Z,0.65
2023-03-23T19:07:38.685Z,0.70
2023-03-23T19:10:07.435Z,0.50
2023-03-23T19:12:35.408Z,0.80
2023-03-23T19:15:06.691Z,0.50
2023-03-23T19:17:34.731Z,0.60
2023-03-23T19:20:03.043Z,0.50
2023-03-23T19:22:31.608Z,0.62
2023-03-23T19:24:59.893Z,0.57
2023-03-23T19:27:28.500Z,0.80
2023-03-23T19:29:56.878Z,0.60
2023-03-23T19:32:26.746Z,0.35
2023-03-23T19:34:55.370Z,0.70
2023-03-23T19:37:23.804Z,0.60
2023-03-23T19:39:52.446Z,0.80
2023-03-23T19:42:20.516Z,0.60
2023-03-23T19:44:49.046Z,0.60
2023-03-23T19:47:17.830Z,0.70
2023-03-23T19:49:47.730Z,0.75
2023-03-23T19:52:18.186Z,1.08
2023-03-23T19:54:47.465Z,0.50
2023-03-23T19:57:16.676Z,0.60
2023-03-23T19:59:44.971Z,0.90
2023-03-23T20:02:13.713Z,0.90
2023-03-23T20:04:43.605Z,0.80
2023-03-23T20:07:14.223Z,0.80
2023-03-23T20:09:43.398Z,0.82
2023-03-23T20:12:11.489Z,0.88
2023-03-23T20:14:44.196Z,1.12
2023-03-23T20:17:14.472Z,1.23
2023-03-23T20:19:43.039Z,0.70
2023-03-23T20:22:11.157Z,1.00
2023-03-23T20:24:42.860Z,0.80
2023-03-23T20:27:11.709Z,1.00
2023-03-23T20:29:39.990Z,1.00
2023-03-23T20:32:08.501Z,0.90
2023-03-23T20:34:37.165Z,0.77
2023-03-23T20:37:05.656Z,0.88
2023-03-23T20:39:34.540Z,0.90
2023-03-23T20:42:06.444Z,1.30
2023-03-23T20:44:36.194Z,0.95
2023-03-23T20:47:04.656Z,0.90
2023-03-23T20:49:33.474Z,1.00
2023-03-23T20:52:01.918Z,1.05
2023-03-23T20:54:30.513Z,1.30
2023-03-23T20:56:59.373Z,1.08
2023-03-23T20:59:29.332Z,0.70
2023-03-23T21:01:57.538Z,0.95
2023-03-23T21:04:27.686Z,0.90
2023-03-23T21:06:56.151Z,1.10
2023-03-23T21:09:25.324Z,1.02
2023-03-23T21:11:53.612Z,0.90
2023-03-23T21:14:21.988Z,1.00
2023-03-23T21:16:51.468Z,0.80
2023-03-23T21:19:20.697Z,1.12
2023-03-23T21:21:55.884Z,1.10
2023-03-23T21:24:28.161Z,1.20
2023-03-23T21:26:58.756Z,1.00
2023-03-23T21:29:27.718Z,1.10
2023-03-23T21:34:29.468Z,1.00
2023-03-23T21:36:57.711Z,0.85
2023-03-23T21:39:26.266Z,0.80
2023-03-23T21:41:54.429Z,1.08
2023-03-23T21:44:22.855Z,1.12
2023-03-23T21:46:52.199Z,1.02
2023-03-23T21:49:21.877Z,0.70
2023-03-23T21:51:50.316Z,1.02
2023-03-23T21:54:18.504Z,1.00
2023-03-23T21:56:46.628Z,1.00
2023-03-23T21:59:15.167Z,0.62
2023-03-23T22:01:43.237Z,0.85
2023-03-23T22:04:31.203Z,0.80
2023-03-23T22:07:17.548Z,0.70
2023-03-23T22:09:45.887Z,0.80
2023-03-23T22:12:14.657Z,0.77
2023-03-23T22:14:42.764Z,0.82
2023-03-23T22:17:11.879Z,1.00
2023-03-23T22:19:41.287Z,0.88
2023-03-23T22:22:09.386Z,0.82
2023-03-23T22:24:37.781Z,0.80
2023-03-23T22:27:06.054Z,1.08
2023-03-23T22:29:34.060Z,1.02
2023-03-23T22:32:02.443Z,0.90
2023-03-23T22:34:32.569Z,0.85
2023-03-23T22:37:03.962Z,1.05
2023-03-23T22:39:32.715Z,1.00
2023-03-23T22:42:00.784Z,0.90
2023-03-23T22:44:28.810Z,0.90
2023-03-23T22:46:57.098Z,0.80
2023-03-23T22:49:25.367Z,1.17
2023-03-23T22:51:53.382Z,1.15
2023-03-23T22:54:23.218Z,1.02
2023-03-23T22:56:51.860Z,0.90
2023-03-23T22:59:20.185Z,0.90
2023-03-23T23:01:48.572Z,0.98
2023-03-23T23:04:17.482Z,1.00
2023-03-23T23:06:45.677Z,1.12
2023-03-23T23:09:14.030Z,1.10
2023-03-23T23:11:43.357Z,0.98
2023-03-23T23:14:11.541Z,0.90
2023-03-23T23:16:40.021Z,0.80
2023-03-23T23:19:08.082Z,0.88
2023-03-23T23:21:36.158Z,0.90
2023-03-23T23:24:04.841Z,0.93
2023-03-23T23:26:32.904Z,1.00
2023-03-23T23:29:03.030Z,0.73
2023-03-23T23:31:33.752Z,0.75
2023-03-23T23:34:03.599Z,0.80
2023-03-23T23:36:33.118Z,0.73
2023-03-23T23:39:02.429Z,1.00
2023-03-23T23:41:31.110Z,0.80
2023-03-23T23:44:00.176Z,1.17
2023-03-23T23:46:31.643Z,0.85
2023-03-23T23:49:01.000Z,1.05
2023-03-23T23:51:29.227Z,0.88
2023-03-23T23:53:58.977Z,1.08
2023-03-23T23:56:28.066Z,0.82
2023-03-23T23:58:56.156Z,0.60
